This is the latest recevied weather packets stored in our database for station/object PY2WOA-13. If no packets are shown the sender has not sent any weather packets the latest 10 day(s).
| Time | Temp. | Humidity | Pressure | Rain* | Wind** | Luminosity | Snow |
|---|---|---|---|---|---|---|---|
| 1788280504 | 25° C | 80% | 1011.2 hPa | - | - | - | - |
| 1788278704 | 23.33° C | 85% | 1011.5 hPa | - | - | - | - |
| 1788276904 | 24.44° C | 81% | 1011 hPa | - | - | - | - |
| 1788275126 | 23.89° C | 84% | 1011.7 hPa | - | - | - | - |
| 1788273304 | 23.33° C | 87% | 1011.7 hPa | - | - | - | - |
| 1788271503 | 22.78° C | 93% | 1011.6 hPa | - | - | - | - |
| 1788269704 | 22.22° C | 100% | 1011.4 hPa | - | - | - | - |
| 1788267904 | 21.67° C | 100% | 1011.2 hPa | - | - | - | - |
| 1788266104 | 21.67° C | 100% | 1010.2 hPa | - | - | - | - |
| 1788264304 | 20.56° C | 100% | 1010.4 hPa | - | - | - | - |
| 1788262504 | 20.56° C | 100% | 1010.1 hPa | - | - | - | - |
| 1788260704 | 20.56° C | 100% | 1010.2 hPa | - | - | - | - |
| 1788258904 | 20.56° C | 100% | 1011.7 hPa | - | - | - | - |
| 1788257104 | 20.56° C | 100% | 1011.6 hPa | - | - | - | - |
| 1788255304 | 20.56° C | 100% | 1011.3 hPa | - | - | - | - |
| 1788253525 | 20.56° C | 100% | 1011.2 hPa | - | - | - | - |
| 1788251724 | 20.56° C | 100% | 1010.1 hPa | - | - | - | - |
| 1788249904 | 20.56° C | 100% | 1010.5 hPa | - | - | - | - |
| 1788248104 | 21.11° C | 100% | 1008.7 hPa | - | - | - | - |
| 1788246304 | 21.11° C | 100% | 1009.8 hPa | - | - | - | - |
| 1788244503 | 21.67° C | 100% | 1009.1 hPa | - | - | - | - |
| 1788242704 | 21.67° C | 100% | 1009.6 hPa | - | - | - | - |
| 1788240904 | 21.67° C | 100% | 1011.1 hPa | - | - | - | - |
| 1788239104 | 21.67° C | 100% | 1010.3 hPa | - | - | - | - |
| 1788237304 | 21.67° C | 100% | 1010.4 hPa | - | - | - | - |
* Rain since midnight (hover to see other rain measurements)
** Current wind speed in m/s (hover to see current wind gust speed)